createdAt,value
2023-04-10T00:00:58.454Z,990.92
2023-04-10T00:01:58.647Z,990.97
2023-04-10T00:02:58.519Z,990.97
2023-04-10T00:03:58.702Z,990.94
2023-04-10T00:04:58.537Z,990.97
2023-04-10T00:05:58.578Z,990.98
2023-04-10T00:06:58.417Z,990.96
2023-04-10T00:07:58.413Z,990.96
2023-04-10T00:08:58.393Z,990.94
2023-04-10T00:09:58.434Z,990.92
2023-04-10T00:10:58.416Z,990.93
2023-04-10T00:11:58.411Z,990.94
2023-04-10T00:12:58.352Z,990.95
2023-04-10T00:13:58.393Z,990.95
2023-04-10T00:14:58.360Z,990.93
2023-04-10T00:15:58.374Z,990.90
2023-04-10T00:16:58.382Z,990.88
2023-04-10T00:17:58.387Z,990.87
2023-04-10T00:18:58.356Z,990.87
2023-04-10T00:19:58.349Z,990.87
2023-04-10T00:20:58.310Z,990.88
2023-04-10T00:21:58.340Z,990.88
2023-04-10T00:22:58.357Z,990.89
2023-04-10T00:23:58.339Z,990.88
2023-04-10T00:24:58.343Z,990.87
2023-04-10T00:25:58.309Z,990.88
2023-04-10T00:26:58.272Z,990.88
2023-04-10T00:27:58.297Z,990.91
2023-04-10T00:28:58.284Z,990.90
2023-04-10T00:29:58.279Z,990.92
2023-04-10T00:30:58.269Z,990.91
2023-04-10T00:31:58.344Z,990.94
2023-04-10T00:32:58.279Z,990.90
2023-04-10T00:33:58.258Z,990.95
2023-04-10T00:34:58.220Z,990.96
2023-04-10T00:35:58.253Z,990.94
2023-04-10T00:36:58.216Z,990.97
2023-04-10T00:37:58.238Z,990.94
2023-04-10T00:38:58.233Z,990.93
2023-04-10T00:39:58.209Z,990.92
2023-04-10T00:40:58.213Z,990.91
2023-04-10T00:41:58.193Z,990.90
2023-04-10T00:42:58.179Z,990.92
2023-04-10T00:43:58.185Z,990.92
2023-04-10T00:44:58.166Z,990.92
2023-04-10T00:45:58.263Z,990.93
2023-04-10T00:46:58.155Z,990.92
2023-04-10T00:47:58.221Z,990.96
2023-04-10T00:48:58.136Z,990.97
2023-04-10T00:49:58.140Z,990.97
2023-04-10T00:50:58.122Z,990.98
2023-04-10T00:51:58.755Z,990.98
2023-04-10T00:52:58.125Z,990.99
2023-04-10T00:53:58.133Z,991.00
2023-04-10T00:54:58.110Z,991.02
2023-04-10T00:55:58.107Z,991.02
2023-04-10T00:56:58.143Z,991.02
2023-04-10T00:57:58.109Z,991.02
2023-04-10T00:58:58.080Z,991.04
2023-04-10T00:59:58.084Z,991.04
2023-04-10T01:00:58.150Z,991.06
2023-04-10T01:01:58.182Z,991.07
2023-04-10T01:02:58.186Z,991.07
2023-04-10T01:03:58.668Z,991.06
2023-04-10T01:04:58.067Z,991.05
2023-04-10T01:05:58.065Z,991.06
2023-04-10T01:06:58.040Z,991.05
2023-04-10T01:07:58.070Z,991.05
2023-04-10T01:08:58.014Z,991.05
2023-04-10T01:09:58.057Z,991.04
2023-04-10T01:10:58.020Z,991.03
2023-04-10T01:11:58.036Z,991.03
2023-04-10T01:12:58.008Z,991.03
2023-04-10T01:13:58.001Z,991.04
2023-04-10T01:14:57.992Z,991.05
2023-04-10T01:15:57.990Z,991.06
2023-04-10T01:16:58.000Z,991.06
2023-04-10T01:17:58.008Z,991.06
2023-04-10T01:18:57.943Z,991.06
2023-04-10T01:19:57.950Z,991.06
2023-04-10T01:20:57.932Z,991.05
2023-04-10T01:21:57.949Z,991.04
2023-04-10T01:22:57.952Z,991.04
2023-04-10T01:23:57.949Z,991.04
2023-04-10T01:24:57.916Z,991.03
2023-04-10T01:25:57.914Z,991.01
2023-04-10T01:26:57.891Z,991.01
2023-04-10T01:27:57.943Z,991.01
2023-04-10T01:28:57.886Z,991.00
2023-04-10T01:29:57.888Z,990.98
2023-04-10T01:30:57.941Z,990.99
2023-04-10T01:31:57.884Z,990.98
2023-04-10T01:32:57.914Z,990.98
2023-04-10T01:33:57.912Z,990.97
2023-04-10T01:34:57.854Z,990.98
2023-04-10T01:35:57.883Z,990.99
2023-04-10T01:36:57.853Z,991.01
2023-04-10T01:37:57.840Z,991.01
2023-04-10T01:38:57.813Z,991.02
2023-04-10T01:39:57.849Z,991.02
2023-04-10T01:40:57.819Z,991.02
2023-04-10T01:41:57.814Z,991.03
2023-04-10T01:42:57.812Z,991.02
2023-04-10T01:43:57.800Z,991.02
2023-04-10T01:44:57.769Z,991.01
2023-04-10T01:45:57.922Z,991.01
2023-04-10T01:46:57.775Z,991.03
2023-04-10T01:47:57.875Z,991.03
2023-04-10T01:48:57.798Z,991.03
2023-04-10T01:49:57.770Z,991.05
2023-04-10T01:50:57.720Z,991.06
2023-04-10T01:51:57.741Z,991.07
2023-04-10T01:52:57.738Z,991.08
2023-04-10T01:53:57.750Z,991.08
2023-04-10T01:54:57.742Z,991.08
2023-04-10T01:55:57.737Z,991.09
2023-04-10T01:56:57.735Z,991.08
2023-04-10T01:57:57.703Z,991.07
2023-04-10T01:58:57.677Z,991.04
2023-04-10T01:59:57.687Z,991.04
2023-04-10T02:00:57.681Z,991.01
2023-04-10T02:01:57.764Z,990.99
2023-04-10T02:02:57.798Z,990.99
2023-04-10T02:03:58.129Z,991.00
2023-04-10T02:04:57.659Z,991.00
2023-04-10T02:05:57.665Z,990.99
2023-04-10T02:06:57.638Z,990.98
2023-04-10T02:07:57.668Z,990.97
2023-04-10T02:08:57.608Z,990.95
2023-04-10T02:09:57.624Z,990.93
2023-04-10T02:10:57.629Z,990.92
2023-04-10T02:11:57.648Z,990.92
2023-04-10T02:12:57.597Z,990.91
2023-04-10T02:13:57.638Z,990.91
2023-04-10T02:14:57.639Z,990.91
2023-04-10T02:15:57.702Z,990.91
2023-04-10T02:16:57.579Z,990.89
2023-04-10T02:17:57.633Z,990.87
2023-04-10T02:18:57.587Z,990.86
2023-04-10T02:19:57.581Z,990.85
2023-04-10T02:20:57.606Z,990.84
2023-04-10T02:21:57.608Z,990.83
2023-04-10T02:22:57.606Z,990.82
2023-04-10T02:23:57.584Z,990.81
2023-04-10T02:24:57.503Z,990.79
2023-04-10T02:25:57.592Z,990.79
2023-04-10T02:26:57.509Z,990.79
2023-04-10T02:27:57.539Z,990.78
2023-04-10T02:28:57.480Z,990.78
2023-04-10T02:29:57.512Z,990.79
2023-04-10T02:30:57.496Z,990.79
2023-04-10T02:31:57.520Z,990.80
2023-04-10T02:32:57.492Z,990.81
2023-04-10T02:33:57.472Z,990.81
2023-04-10T02:34:57.440Z,990.80
2023-04-10T02:35:57.472Z,990.79
2023-04-10T02:36:57.419Z,990.79
2023-04-10T02:37:57.445Z,990.79
2023-04-10T02:38:57.430Z,990.79
2023-04-10T02:39:57.416Z,990.79
2023-04-10T02:40:57.425Z,990.78
2023-04-10T02:41:57.397Z,990.76
2023-04-10T02:42:57.385Z,990.74
2023-04-10T02:43:57.405Z,990.74
2023-04-10T02:44:57.371Z,990.75
2023-04-10T02:45:57.405Z,990.78
2023-04-10T02:46:57.387Z,990.80
2023-04-10T02:47:57.414Z,990.82
2023-04-10T02:48:57.346Z,990.82
2023-04-10T02:49:57.353Z,990.80
2023-04-10T02:50:57.348Z,990.78
2023-04-10T02:51:57.329Z,990.77
2023-04-10T02:52:57.333Z,990.77
2023-04-10T02:53:57.353Z,990.76
2023-04-10T02:54:57.323Z,990.75
2023-04-10T02:55:57.345Z,990.74
2023-04-10T02:56:57.302Z,990.72
2023-04-10T02:57:57.302Z,990.72
2023-04-10T02:58:57.276Z,990.72
2023-04-10T02:59:57.277Z,990.72
2023-04-10T03:00:57.257Z,990.73
2023-04-10T03:01:57.387Z,990.74
2023-04-10T03:02:57.326Z,990.74
2023-04-10T03:03:57.722Z,990.73
2023-04-10T03:04:57.311Z,990.73
2023-04-10T03:05:57.251Z,990.72
2023-04-10T03:06:57.269Z,990.73
2023-04-10T03:07:57.255Z,990.73
2023-04-10T03:08:57.207Z,990.72
2023-04-10T03:09:57.234Z,990.70
2023-04-10T03:10:57.204Z,990.69
2023-04-10T03:11:57.228Z,990.69
2023-04-10T03:12:57.216Z,990.68
2023-04-10T03:13:57.205Z,990.67
2023-04-10T03:14:57.176Z,990.66
2023-04-10T03:15:57.254Z,990.67
2023-04-10T03:16:57.164Z,990.67
2023-04-10T03:17:57.226Z,990.66
2023-04-10T03:18:57.177Z,990.65
2023-04-10T03:19:57.156Z,990.64
2023-04-10T03:20:57.153Z,990.62
2023-04-10T03:21:57.162Z,990.61
2023-04-10T03:22:57.117Z,990.61
2023-04-10T03:23:57.149Z,990.60
2023-04-10T03:24:57.122Z,990.59
2023-04-10T03:25:57.135Z,990.57
2023-04-10T03:26:57.096Z,990.56
2023-04-10T03:27:57.119Z,990.53
2023-04-10T03:28:57.088Z,990.54
2023-04-10T03:29:57.093Z,990.55
2023-04-10T03:30:57.081Z,990.56
2023-04-10T03:31:57.190Z,990.58
2023-04-10T03:32:57.057Z,990.60
2023-04-10T03:33:57.287Z,990.62
2023-04-10T03:34:57.042Z,990.63
2023-04-10T03:35:57.109Z,990.62
2023-04-10T03:36:57.043Z,990.62
2023-04-10T03:37:57.036Z,990.63
2023-04-10T03:38:57.017Z,990.62
2023-04-10T03:39:57.017Z,990.62
2023-04-10T03:40:57.021Z,990.64
2023-04-10T03:41:57.028Z,990.63
2023-04-10T03:42:56.983Z,990.62
2023-04-10T03:43:57.135Z,990.61
2023-04-10T03:44:56.969Z,990.59
2023-04-10T03:45:56.976Z,990.59
2023-04-10T03:46:57.008Z,990.59
2023-04-10T03:47:57.048Z,990.59
2023-04-10T03:48:56.961Z,990.58
2023-04-10T03:49:56.947Z,990.58
2023-04-10T03:50:56.936Z,990.57
2023-04-10T03:51:56.935Z,990.56
2023-04-10T03:52:56.919Z,990.56
2023-04-10T03:53:57.073Z,990.58
2023-04-10T03:54:56.913Z,990.59
2023-04-10T03:55:56.917Z,990.60
2023-04-10T03:56:56.888Z,990.61
2023-04-10T03:57:56.902Z,990.61
2023-04-10T03:58:56.887Z,990.59
2023-04-10T03:59:56.877Z,990.58
2023-04-10T04:00:56.863Z,990.58
2023-04-10T04:01:56.939Z,990.58
2023-04-10T04:02:56.942Z,990.57
2023-04-10T04:03:57.083Z,990.55
2023-04-10T04:04:56.902Z,990.54
2023-04-10T04:05:56.850Z,990.53
2023-04-10T04:06:56.834Z,990.52
2023-04-10T04:07:56.831Z,990.52
2023-04-10T04:08:56.823Z,990.52
2023-04-10T04:09:56.819Z,990.52
2023-04-10T04:10:56.831Z,990.53
2023-04-10T04:11:56.830Z,990.55
2023-04-10T04:12:56.783Z,990.56
2023-04-10T04:13:56.820Z,990.57
2023-04-10T04:14:56.777Z,990.56
2023-04-10T04:15:56.772Z,990.56
2023-04-10T04:16:56.869Z,990.57
2023-04-10T04:17:56.818Z,990.58
2023-04-10T04:18:56.800Z,990.57
2023-04-10T04:19:56.761Z,990.56
2023-04-10T04:20:56.746Z,990.55
2023-04-10T04:21:56.746Z,990.53
2023-04-10T04:22:56.720Z,990.53
2023-04-10T04:23:56.737Z,990.52
2023-04-10T04:24:56.719Z,990.52
2023-04-10T04:25:56.717Z,990.53
2023-04-10T04:26:56.747Z,990.53
2023-04-10T04:27:56.697Z,990.54
2023-04-10T04:28:56.677Z,990.54
2023-04-10T04:29:56.681Z,990.54
2023-04-10T04:30:56.662Z,990.54
2023-04-10T04:31:56.711Z,990.54
2023-04-10T04:32:56.751Z,990.54
2023-04-10T04:33:56.696Z,990.55
2023-04-10T04:34:56.649Z,990.56
2023-04-10T04:35:56.671Z,990.56
2023-04-10T04:36:56.625Z,990.56
2023-04-10T04:37:56.652Z,990.57
2023-04-10T04:38:56.628Z,990.58
2023-04-10T04:39:56.631Z,990.59
2023-04-10T04:40:56.648Z,990.60
2023-04-10T04:41:56.597Z,990.62
2023-04-10T04:42:56.590Z,990.63
2023-04-10T04:43:56.670Z,990.63
2023-04-10T04:44:56.567Z,990.62
2023-04-10T04:45:56.620Z,990.63
2023-04-10T04:46:56.578Z,990.65
2023-04-10T04:47:56.588Z,990.66
2023-04-10T04:48:56.573Z,990.67
2023-04-10T04:49:56.569Z,990.66
2023-04-10T04:50:56.536Z,990.66
2023-04-10T04:51:56.560Z,990.66
2023-04-10T04:52:56.536Z,990.66
2023-04-10T04:53:56.688Z,990.66
2023-04-10T04:54:56.526Z,990.65
2023-04-10T04:55:56.538Z,990.66
2023-04-10T04:56:56.512Z,990.65
2023-04-10T04:57:56.489Z,990.64
2023-04-10T04:58:56.571Z,990.64
2023-04-10T04:59:56.524Z,990.63
2023-04-10T05:00:56.506Z,990.62
2023-04-10T05:01:56.663Z,990.61
2023-04-10T05:02:56.524Z,990.60
2023-04-10T05:03:56.517Z,990.60
2023-04-10T05:04:56.445Z,990.60
2023-04-10T05:05:56.509Z,990.60
2023-04-10T05:06:56.428Z,990.61
2023-04-10T05:07:56.450Z,990.62
2023-04-10T05:08:56.593Z,990.62
2023-04-10T05:09:56.414Z,990.62
2023-04-10T05:10:56.401Z,990.62
2023-04-10T05:11:56.431Z,990.62
2023-04-10T05:12:56.416Z,990.62
2023-04-10T05:13:56.399Z,990.64
2023-04-10T05:14:56.392Z,990.65
2023-04-10T05:15:56.397Z,990.65
2023-04-10T05:16:56.379Z,990.65
2023-04-10T05:17:56.518Z,990.63
2023-04-10T05:18:56.679Z,990.62
2023-04-10T05:19:56.383Z,990.61
2023-04-10T05:20:56.346Z,990.60
2023-04-10T05:21:56.374Z,990.60
2023-04-10T05:22:56.340Z,990.60
2023-04-10T05:23:56.384Z,990.60
2023-04-10T05:24:56.309Z,990.60
2023-04-10T05:25:56.339Z,990.59
2023-04-10T05:26:56.314Z,990.58
2023-04-10T05:27:56.308Z,990.58
2023-04-10T05:28:56.532Z,990.59
2023-04-10T05:29:56.293Z,990.60
2023-04-10T05:30:56.353Z,990.60
2023-04-10T05:31:56.290Z,990.61
2023-04-10T05:32:56.326Z,990.62
2023-04-10T05:33:56.276Z,990.62
2023-04-10T05:34:56.259Z,990.62
2023-04-10T05:35:56.293Z,990.63
2023-04-10T05:36:58.772Z,990.64
2023-04-10T05:37:56.247Z,990.64
2023-04-10T05:38:56.536Z,990.64
2023-04-10T05:39:56.230Z,990.63
2023-04-10T05:40:56.239Z,990.63
2023-04-10T05:41:56.226Z,990.63
2023-04-10T05:42:56.220Z,990.63
2023-04-10T05:43:56.219Z,990.63
2023-04-10T05:44:56.202Z,990.64
2023-04-10T05:45:56.246Z,990.63
2023-04-10T05:46:56.196Z,990.63
2023-04-10T05:47:56.226Z,990.63
2023-04-10T05:48:56.486Z,990.65
2023-04-10T05:49:56.173Z,990.67
2023-04-10T05:50:56.158Z,990.67
2023-04-10T05:51:56.174Z,990.67
2023-04-10T05:52:56.151Z,990.67
2023-04-10T05:53:56.161Z,990.66
2023-04-10T05:54:56.126Z,990.66
2023-04-10T05:55:56.138Z,990.65
2023-04-10T05:56:56.115Z,990.64
2023-04-10T05:57:56.134Z,990.64
2023-04-10T05:58:56.213Z,990.63
2023-04-10T05:59:56.160Z,990.64
2023-04-10T06:00:56.117Z,990.64
2023-04-10T06:01:56.155Z,990.65
2023-04-10T06:02:56.145Z,990.66
2023-04-10T06:03:56.240Z,990.66
2023-04-10T06:04:56.159Z,990.65
2023-04-10T06:05:56.086Z,990.64
2023-04-10T06:06:56.061Z,990.64
2023-04-10T06:07:58.192Z,990.64
2023-04-10T06:08:56.180Z,990.64
2023-04-10T06:09:56.080Z,990.64
2023-04-10T06:10:56.054Z,990.64
2023-04-10T06:11:56.060Z,990.63
2023-04-10T06:12:56.043Z,990.62
2023-04-10T06:13:56.039Z,990.62
2023-04-10T06:14:56.035Z,990.61
2023-04-10T06:15:56.071Z,990.59
2023-04-10T06:16:56.004Z,990.58
2023-04-10T06:17:56.025Z,990.59
2023-04-10T06:18:56.289Z,990.59
2023-04-10T06:19:55.997Z,990.60
2023-04-10T06:21:03.009Z,990.59
2023-04-10T06:21:56.011Z,990.58
2023-04-10T06:22:55.963Z,990.55
2023-04-10T06:23:56.332Z,990.52
2023-04-10T06:24:55.960Z,990.51
2023-04-10T06:25:55.985Z,990.50
2023-04-10T06:26:55.962Z,990.50
2023-04-10T06:27:55.963Z,990.50
2023-04-10T06:28:56.150Z,990.51
2023-04-10T06:29:55.961Z,990.51
2023-04-10T06:30:55.997Z,990.51
2023-04-10T06:31:55.997Z,990.51
2023-04-10T06:32:55.991Z,990.50
2023-04-10T06:33:55.930Z,990.51
2023-04-10T06:34:55.896Z,990.50
2023-04-10T06:35:55.951Z,990.51
2023-04-10T06:36:56.040Z,990.51
2023-04-10T06:37:55.874Z,990.50
2023-04-10T06:38:56.127Z,990.49
2023-04-10T06:39:55.887Z,990.49
2023-04-10T06:40:55.841Z,990.49
2023-04-10T06:41:55.891Z,990.48
2023-04-10T06:42:55.854Z,990.48
2023-04-10T06:43:55.844Z,990.47
2023-04-10T06:44:55.844Z,990.47
2023-04-10T06:45:55.834Z,990.46
2023-04-10T06:46:55.858Z,990.45
2023-04-10T06:47:55.865Z,990.44
2023-04-10T06:48:55.963Z,990.43
2023-04-10T06:49:55.827Z,990.43
2023-04-10T06:50:55.765Z,990.41
2023-04-10T06:51:55.798Z,990.40
2023-04-10T06:52:55.810Z,990.42
2023-04-10T06:53:55.776Z,990.42
2023-04-10T06:54:55.759Z,990.45
2023-04-10T06:55:55.771Z,990.46
2023-04-10T06:56:55.754Z,990.43
2023-04-10T06:57:55.758Z,990.43
2023-04-10T06:58:55.953Z,990.42
2023-04-10T06:59:55.753Z,990.41
2023-04-10T07:00:55.752Z,990.39
2023-04-10T07:01:55.756Z,990.39
2023-04-10T07:02:55.720Z,990.35
2023-04-10T07:03:55.708Z,990.34
2023-04-10T07:04:55.686Z,990.34
2023-04-10T07:05:55.667Z,990.34
2023-04-10T07:06:55.661Z,990.33
2023-04-10T07:07:55.678Z,990.33
2023-04-10T07:08:55.902Z,990.33
2023-04-10T07:09:55.661Z,990.34
2023-04-10T07:10:58.312Z,990.32
2023-04-10T07:11:55.662Z,990.30
2023-04-10T07:12:55.628Z,990.28
2023-04-10T07:13:55.622Z,990.25
2023-04-10T07:14:55.606Z,990.25
2023-04-10T07:15:55.665Z,990.24
2023-04-10T07:16:55.571Z,990.23
2023-04-10T07:17:55.622Z,990.23
2023-04-10T07:18:55.830Z,990.22
2023-04-10T07:19:55.586Z,990.22
2023-04-10T07:20:55.525Z,990.23
2023-04-10T07:21:55.563Z,990.21
2023-04-10T07:22:55.520Z,990.20
2023-04-10T07:23:55.537Z,990.20
2023-04-10T07:24:55.502Z,990.19
2023-04-10T07:25:55.529Z,990.15
2023-04-10T07:26:55.516Z,990.15
2023-04-10T07:27:55.495Z,990.13
2023-04-10T07:28:55.701Z,990.12
2023-04-10T07:29:55.480Z,990.13
2023-04-10T07:30:55.475Z,990.12
2023-04-10T07:31:55.585Z,990.10
2023-04-10T07:32:55.549Z,990.09
2023-04-10T07:33:55.457Z,990.08
2023-04-10T07:34:55.444Z,990.07
2023-04-10T07:35:55.509Z,990.07
2023-04-10T07:36:55.418Z,990.06
2023-04-10T07:37:55.440Z,990.06
2023-04-10T07:38:55.600Z,990.06
2023-04-10T07:39:55.427Z,990.05
2023-04-10T07:40:55.387Z,990.03
2023-04-10T07:41:55.386Z,990.03
2023-04-10T07:42:55.410Z,990.03
2023-04-10T07:43:55.408Z,990.02
2023-04-10T07:44:55.348Z,990.03
2023-04-10T07:45:55.362Z,990.04
2023-04-10T07:46:55.331Z,990.05
2023-04-10T07:47:55.358Z,990.05
2023-04-10T07:48:55.840Z,990.05
2023-04-10T07:49:55.312Z,990.04
2023-04-10T07:50:55.302Z,990.04
2023-04-10T07:51:55.326Z,990.03
2023-04-10T07:52:55.300Z,990.04
2023-04-10T07:53:55.288Z,990.04
2023-04-10T07:54:55.276Z,990.03
2023-04-10T07:55:55.299Z,990.02
2023-04-10T07:56:55.249Z,990.00
2023-04-10T07:57:55.273Z,990.00
2023-04-10T07:58:55.484Z,989.99
2023-04-10T07:59:55.249Z,989.96
2023-04-10T08:00:55.256Z,989.93
2023-04-10T08:01:55.274Z,989.93
2023-04-10T08:02:55.384Z,989.91
2023-04-10T08:03:55.317Z,989.89
2023-04-10T08:04:55.553Z,989.88
2023-04-10T08:05:55.234Z,989.87
2023-04-10T08:06:55.199Z,989.86
2023-04-10T08:07:55.187Z,989.85
2023-04-10T08:08:55.346Z,989.83
2023-04-10T08:09:55.171Z,989.81
2023-04-10T08:10:55.164Z,989.79
2023-04-10T08:11:55.175Z,989.78
2023-04-10T08:12:55.133Z,989.77
2023-04-10T08:13:55.246Z,989.76
2023-04-10T08:14:55.123Z,989.75
2023-04-10T08:15:55.162Z,989.74
2023-04-10T08:16:55.146Z,989.72
2023-04-10T08:17:55.197Z,989.71
2023-04-10T08:18:55.250Z,989.70
2023-04-10T08:19:55.110Z,989.71
2023-04-10T08:20:55.120Z,989.71
2023-04-10T08:21:55.077Z,989.71
2023-04-10T08:22:56.254Z,989.70
2023-04-10T08:23:55.082Z,989.71
2023-04-10T08:24:55.061Z,989.71
2023-04-10T08:25:55.074Z,989.68
2023-04-10T08:26:55.087Z,989.66
2023-04-10T08:27:55.051Z,989.65
2023-04-10T08:28:55.151Z,989.65
2023-04-10T08:29:55.018Z,989.61
2023-04-10T08:30:55.103Z,989.57
2023-04-10T08:31:55.025Z,989.55
2023-04-10T08:32:55.006Z,989.55
2023-04-10T08:33:55.355Z,989.53
2023-04-10T08:34:54.990Z,989.52
2023-04-10T08:35:55.009Z,989.50
2023-04-10T08:36:55.019Z,989.50
2023-04-10T08:38:11.678Z,989.47
2023-04-10T08:38:55.976Z,989.44
2023-04-10T08:39:54.966Z,989.43
2023-04-10T08:40:54.926Z,989.43
2023-04-10T08:41:54.949Z,989.43
2023-04-10T08:42:54.915Z,989.42
2023-04-10T08:43:55.227Z,989.42
2023-04-10T08:44:54.910Z,989.42
2023-04-10T08:45:54.962Z,989.42
2023-04-10T08:46:54.897Z,989.40
2023-04-10T08:47:54.915Z,989.40
2023-04-10T08:48:54.853Z,989.41
2023-04-10T08:49:54.874Z,989.40
2023-04-10T08:50:54.850Z,989.38
2023-04-10T08:51:54.898Z,989.38
2023-04-10T08:52:54.841Z,989.38
2023-04-10T08:53:55.000Z,989.38
2023-04-10T08:54:54.824Z,989.36
2023-04-10T08:55:54.833Z,989.38
2023-04-10T08:56:54.826Z,989.37
2023-04-10T08:58:01.075Z,989.35
2023-04-10T08:58:55.796Z,989.34
2023-04-10T08:59:54.815Z,989.32
2023-04-10T09:00:54.819Z,989.32
2023-04-10T09:01:54.892Z,989.31
2023-04-10T09:02:54.947Z,989.32
2023-04-10T09:03:55.127Z,989.29
2023-04-10T09:04:54.978Z,989.28
2023-04-10T09:05:54.765Z,989.25
2023-04-10T09:06:54.753Z,989.24
2023-04-10T09:07:54.805Z,989.22
2023-04-10T09:08:54.757Z,989.24
2023-04-10T09:09:54.763Z,989.18
2023-04-10T09:10:56.328Z,989.18
2023-04-10T09:11:54.729Z,989.19
2023-04-10T09:12:54.749Z,989.17
2023-04-10T09:13:54.890Z,989.15
2023-04-10T09:14:54.703Z,989.12
2023-04-10T09:15:54.812Z,989.10
2023-04-10T09:16:54.685Z,989.11
2023-04-10T09:17:54.724Z,989.15
2023-04-10T09:18:54.666Z,989.11
2023-04-10T09:19:54.702Z,989.11
2023-04-10T09:20:54.635Z,989.05
2023-04-10T09:21:54.690Z,989.11
2023-04-10T09:22:54.641Z,989.10
2023-04-10T09:23:54.942Z,989.08
2023-04-10T09:24:54.648Z,989.11
2023-04-10T09:25:54.621Z,989.10
2023-04-10T09:26:54.584Z,989.04
2023-04-10T09:27:54.603Z,989.06
2023-04-10T09:28:54.571Z,989.04
2023-04-10T09:29:54.584Z,989.04
2023-04-10T09:30:54.619Z,988.95
2023-04-10T09:31:54.602Z,988.94
2023-04-10T09:32:54.621Z,988.93
2023-04-10T09:33:54.695Z,988.90
2023-04-10T09:34:54.543Z,988.85
2023-04-10T09:35:54.536Z,988.88
2023-04-10T09:36:54.516Z,988.80
2023-04-10T09:37:54.577Z,988.82
2023-04-10T09:38:54.506Z,988.81
2023-04-10T09:39:54.529Z,988.77
2023-04-10T09:40:54.938Z,988.77
2023-04-10T09:41:54.510Z,988.75
2023-04-10T09:42:54.471Z,988.72
2023-04-10T09:43:54.768Z,988.78
2023-04-10T09:44:54.466Z,988.78
2023-04-10T09:45:54.500Z,988.74
2023-04-10T09:46:54.722Z,988.67
2023-04-10T09:47:54.530Z,988.69
2023-04-10T09:48:54.433Z,988.60
2023-04-10T09:49:54.465Z,988.65
2023-04-10T09:50:54.417Z,988.57
2023-04-10T09:51:54.492Z,988.62
2023-04-10T09:52:54.437Z,988.58
2023-04-10T09:53:54.531Z,988.57
2023-04-10T09:54:54.441Z,988.54
2023-04-10T09:55:54.400Z,988.53
2023-04-10T09:56:54.379Z,988.52
2023-04-10T09:57:54.401Z,988.36
2023-04-10T09:58:54.564Z,988.46
2023-04-10T09:59:54.425Z,988.39
2023-04-10T10:00:54.359Z,988.43
2023-04-10T10:01:54.425Z,988.41
2023-04-10T10:02:54.510Z,988.35
2023-04-10T10:03:54.434Z,988.37
2023-04-10T10:04:54.370Z,988.34
2023-04-10T10:05:54.337Z,988.26
2023-04-10T10:06:54.322Z,988.28
2023-04-10T10:07:54.305Z,988.30
2023-04-10T10:08:54.568Z,988.29
2023-04-10T10:09:54.339Z,988.26
2023-04-10T10:10:54.310Z,988.21
2023-04-10T10:11:54.295Z,988.21
2023-04-10T10:12:54.295Z,988.19
2023-04-10T10:13:54.320Z,988.12
2023-04-10T10:14:54.255Z,988.20
2023-04-10T10:15:54.289Z,988.13
2023-04-10T10:16:54.267Z,988.16
2023-04-10T10:17:54.279Z,988.10
2023-04-10T10:18:54.483Z,988.11
2023-04-10T10:19:54.217Z,988.16
2023-04-10T10:20:54.211Z,988.11
2023-04-10T10:21:54.231Z,988.11
2023-04-10T10:22:54.198Z,988.10
2023-04-10T10:23:54.250Z,988.09
2023-04-10T10:24:54.172Z,988.10
2023-04-10T10:25:54.178Z,988.06
2023-04-10T10:26:54.155Z,988.00
2023-04-10T10:27:54.186Z,987.98
2023-04-10T10:28:54.490Z,988.03
2023-04-10T10:29:54.145Z,987.97
2023-04-10T10:30:54.134Z,987.93
2023-04-10T10:31:54.284Z,987.97
2023-04-10T10:32:54.164Z,987.96
2023-04-10T10:33:54.143Z,987.97
2023-04-10T10:34:54.101Z,987.93
2023-04-10T10:35:54.105Z,987.90
2023-04-10T10:36:54.120Z,987.92
2023-04-10T10:37:54.109Z,987.89
2023-04-10T10:38:54.278Z,987.86
2023-04-10T10:39:54.087Z,987.84
2023-04-10T10:40:54.057Z,987.82
2023-04-10T10:41:54.069Z,987.79
2023-04-10T10:42:54.036Z,987.69
2023-04-10T10:43:54.063Z,987.66
2023-04-10T10:44:54.053Z,987.66
2023-04-10T10:45:54.063Z,987.73
2023-04-10T10:46:54.021Z,987.71
2023-04-10T10:47:54.036Z,987.71
2023-04-10T10:48:54.188Z,987.68
2023-04-10T10:49:54.054Z,987.59
2023-04-10T10:50:54.047Z,987.61
2023-04-10T10:51:53.994Z,987.59
2023-04-10T10:52:53.980Z,987.54
2023-04-10T10:53:53.979Z,987.58
2023-04-10T10:54:59.425Z,987.60
2023-04-10T10:55:54.989Z,987.59
2023-04-10T10:56:53.928Z,987.55
2023-04-10T10:57:53.959Z,987.58
2023-04-10T10:58:54.261Z,987.57
2023-04-10T10:59:53.922Z,987.57
2023-04-10T11:00:53.913Z,987.58
2023-04-10T11:01:54.103Z,987.54
2023-04-10T11:02:54.014Z,987.54
2023-04-10T11:03:54.083Z,987.53
2023-04-10T11:04:53.892Z,987.54
2023-04-10T11:05:53.903Z,987.56
2023-04-10T11:06:53.896Z,987.54
2023-04-10T11:07:53.895Z,987.52
2023-04-10T11:08:54.076Z,987.59
2023-04-10T11:09:53.887Z,987.50
2023-04-10T11:10:53.835Z,987.51
2023-04-10T11:11:53.848Z,987.44
2023-04-10T11:12:53.844Z,987.55
2023-04-10T11:13:53.862Z,987.57
2023-04-10T11:14:53.798Z,987.50
2023-04-10T11:15:53.826Z,987.51
2023-04-10T11:16:53.848Z,987.51
2023-04-10T11:17:53.835Z,987.50
2023-04-10T11:19:06.261Z,987.43
2023-04-10T11:19:53.786Z,987.37
2023-04-10T11:20:53.769Z,987.33
2023-04-10T11:21:53.788Z,987.37
2023-04-10T11:22:53.741Z,987.38
2023-04-10T11:23:53.779Z,987.29
2023-04-10T11:24:53.736Z,987.25
2023-04-10T11:25:53.799Z,987.24
2023-04-10T11:26:53.716Z,987.20
2023-04-10T11:27:53.730Z,987.15
2023-04-10T11:28:53.899Z,987.11
2023-04-10T11:29:53.702Z,987.03
2023-04-10T11:30:53.719Z,987.09
2023-04-10T11:31:53.746Z,987.05
2023-04-10T11:32:53.712Z,987.06
2023-04-10T11:33:53.686Z,987.01
2023-04-10T11:34:53.649Z,987.06
2023-04-10T11:35:53.765Z,987.01
2023-04-10T11:36:53.658Z,987.02
2023-04-10T11:37:53.683Z,986.97
2023-04-10T11:38:53.946Z,986.98
2023-04-10T11:39:53.658Z,986.96
2023-04-10T11:40:53.610Z,986.94
2023-04-10T11:41:53.759Z,986.99
2023-04-10T11:42:53.601Z,986.99
2023-04-10T11:43:53.612Z,986.95
2023-04-10T11:44:53.620Z,986.88
2023-04-10T11:45:53.626Z,986.86
2023-04-10T11:46:53.576Z,986.84
2023-04-10T11:47:53.606Z,986.82
2023-04-10T11:48:53.673Z,986.76
2023-04-10T11:49:53.570Z,986.73
2023-04-10T11:50:53.550Z,986.75
2023-04-10T11:51:53.556Z,986.75
2023-04-10T11:52:55.267Z,986.73
2023-04-10T11:53:53.560Z,986.68
2023-04-10T11:54:53.543Z,986.72
2023-04-10T11:55:53.529Z,986.75
2023-04-10T11:56:53.496Z,986.73
2023-04-10T11:57:53.501Z,986.74
2023-04-10T11:58:53.777Z,986.69
2023-04-10T11:59:53.509Z,986.57
2023-04-10T12:00:53.487Z,986.61
2023-04-10T12:01:53.523Z,986.63
2023-04-10T12:02:53.813Z,986.58
2023-04-10T12:03:53.590Z,986.53
2023-04-10T12:04:53.491Z,986.54
2023-04-10T12:05:53.463Z,986.55
2023-04-10T12:06:53.454Z,986.46
2023-04-10T12:07:53.439Z,986.46
2023-04-10T12:08:53.929Z,986.42
2023-04-10T12:09:53.448Z,986.38
2023-04-10T12:10:53.431Z,986.36
2023-04-10T12:11:53.462Z,986.39
2023-04-10T12:12:53.390Z,986.35
2023-04-10T12:13:53.383Z,986.32
2023-04-10T12:14:53.369Z,986.27
2023-04-10T12:15:53.556Z,986.25
2023-04-10T12:16:53.352Z,986.28
2023-04-10T12:17:53.416Z,986.26
2023-04-10T12:18:53.584Z,986.23
2023-04-10T12:19:53.368Z,986.25
2023-04-10T12:22:00.182Z,986.20
2023-04-10T12:23:00.198Z,986.16
2023-04-10T12:24:00.163Z,986.13
2023-04-10T12:25:00.170Z,986.16
2023-04-10T12:26:00.192Z,986.13
2023-04-10T12:27:01.137Z,986.16
2023-04-10T12:28:00.163Z,986.17
2023-04-10T12:29:00.159Z,986.15
2023-04-10T12:30:00.180Z,986.14